SBCJ Airport Information

Runway Information
Runway 10 Length 6562 ft width 148 ft
Elevation ft Threshold ft Heading 0
Runway 28 Length 6562 ft Width 148 ft
Elevation ft Threshold ft Heading 0
Airport Frequencies
Type AFIS Name RDO Frequency 131.7 MHZ
Airport Navaids
Type VOR-DME Name Carajas Frequency 112400 KHZ
Type NDB Name Carajas Frequency 170 KHZ
Airport Weather Information & NOTAM
ADDS - METARS form results

(2219 UTC 18 August 2022)
Data provider http://aviationweather.gov/metar/data/
 
METAR text: SBCJ 182130Z 00000KT CAVOK 24/17 Q1016
Conditions at: SBCJ (CARAJAS/MARABA , BR) observed 2130 UTC 18 August 2022
Temperature: 24.0°C (75°F)
Dewpoint: 17.0°C (63°F) [RH = 65%]
Pressure (altimeter): 30.00 inches Hg (1016.0 mb)
Winds: calm
Visibility: 6 or more miles (10+ km)
Ceiling: ceiling and visibility are OK
Clouds: unknown
Weather: no significant weather observed at this time

Forecast for: SBCJ (CARAJAS/MARABA , BR)
Text: TAF SBCJ 182100Z 1900/1912 03005KT CAVOK TN18/1907Z TX26/1912Z RMK PHD
Forecast period: 0000 to 1200 UTC 19 August 2022
Forecast type: FROM: standard forecast or significant change
Winds: from the NNE (30 degrees) at 6 MPH (5 knots; 2.6 m/s)
Visibility: 6 or more miles (10+ km)
Ceiling: unknown
Clouds: missing
Weather: no significant weather forecast for this period